createdAt,value
2022-11-05T00:00:37.239Z,87.34
2022-11-05T00:03:28.265Z,87.12
2022-11-05T00:06:19.334Z,87.46
2022-11-05T00:09:10.565Z,87.67
2022-11-05T00:12:04.839Z,87.62
2022-11-05T00:14:55.828Z,88.12
2022-11-05T00:17:28.482Z,88.23
2022-11-05T00:20:01.191Z,88.42
2022-11-05T00:22:52.277Z,88.29
2022-11-05T00:25:24.848Z,88.74
2022-11-05T00:28:02.432Z,88.46
2022-11-05T00:30:34.936Z,88.74
2022-11-05T00:33:07.600Z,89.06
2022-11-05T00:35:40.311Z,89.30
2022-11-05T00:38:12.936Z,89.21
2022-11-05T00:40:45.715Z,88.63
2022-11-05T00:43:36.702Z,88.79
2022-11-05T00:46:09.276Z,89.06
2022-11-05T00:49:00.384Z,89.42
2022-11-05T00:51:32.909Z,89.25
2022-11-05T00:54:05.509Z,89.47
2022-11-05T00:56:37.997Z,89.62
2022-11-05T00:59:10.532Z,89.62
2022-11-05T01:01:43.168Z,89.46
2022-11-05T01:04:15.807Z,89.50
2022-11-05T01:06:48.635Z,89.89
2022-11-05T01:09:21.175Z,90.02
2022-11-05T01:11:54.921Z,90.30
2022-11-05T01:14:27.663Z,89.96
2022-11-05T01:17:00.228Z,90.11
2022-11-05T01:19:32.897Z,90.11
2022-11-05T01:22:05.473Z,90.51
2022-11-05T01:24:38.069Z,90.52
2022-11-05T01:27:10.600Z,91.02
2022-11-05T01:29:43.133Z,90.97
2022-11-05T01:32:15.780Z,91.45
2022-11-05T01:34:49.385Z,90.92
2022-11-05T01:37:21.877Z,91.00
2022-11-05T01:39:54.339Z,90.87
2022-11-05T01:42:28.320Z,91.00
2022-11-05T01:45:03.770Z,90.96
2022-11-05T01:47:56.258Z,90.79
2022-11-05T01:50:41.156Z,90.60
2022-11-05T01:53:30.420Z,90.68
2022-11-05T01:56:10.550Z,90.58
2022-11-05T01:59:11.417Z,90.86
2022-11-05T02:01:45.240Z,90.98
2022-11-05T02:04:39.671Z,91.21
2022-11-05T02:07:13.957Z,90.99
2022-11-05T02:10:09.435Z,91.01
2022-11-05T02:12:46.581Z,90.98
2022-11-05T02:16:01.763Z,91.06
2022-11-05T02:19:03.321Z,91.61
2022-11-05T02:22:22.132Z,91.40
2022-11-05T02:25:19.248Z,91.19
2022-11-05T02:28:32.313Z,91.71
2022-11-05T02:31:39.006Z,91.45
2022-11-05T02:34:32.840Z,91.17
2022-11-05T02:37:36.254Z,91.27
2022-11-05T02:40:19.726Z,91.11
2022-11-05T02:43:21.816Z,91.19
2022-11-05T02:46:33.164Z,90.97
2022-11-05T02:49:40.603Z,91.06
2022-11-05T02:52:24.631Z,91.58
2022-11-05T02:55:27.490Z,91.23
2022-11-05T02:58:04.147Z,91.62
2022-11-05T03:00:55.219Z,91.29
2022-11-05T03:03:43.701Z,91.28
2022-11-05T03:06:47.596Z,90.99
2022-11-05T03:09:51.772Z,91.18
2022-11-05T03:13:01.260Z,91.50
2022-11-05T03:15:52.363Z,91.40
2022-11-05T03:19:07.797Z,91.74
2022-11-05T03:21:53.285Z,91.23
2022-11-05T03:24:36.761Z,91.39
2022-11-05T03:27:15.254Z,91.68
2022-11-05T03:29:54.186Z,91.56
2022-11-05T03:32:32.285Z,91.60
2022-11-05T03:35:18.158Z,91.56
2022-11-05T03:37:56.845Z,91.44
2022-11-05T03:40:34.924Z,91.51
2022-11-05T03:43:09.584Z,91.44
2022-11-05T03:45:54.873Z,91.66
2022-11-05T03:48:31.519Z,91.57
2022-11-05T03:51:19.492Z,91.51
2022-11-05T03:53:58.259Z,91.75
2022-11-05T03:56:46.285Z,91.57
2022-11-05T03:59:21.061Z,91.39
2022-11-05T04:01:54.789Z,91.60
2022-11-05T04:04:27.399Z,91.27
2022-11-05T04:07:18.405Z,91.47
2022-11-05T04:10:09.602Z,91.78
2022-11-05T04:13:01.112Z,91.47
2022-11-05T04:15:53.640Z,91.51
2022-11-05T04:18:26.455Z,91.38
2022-11-05T04:21:18.218Z,91.50
2022-11-05T04:24:09.617Z,91.98
2022-11-05T04:26:44.135Z,92.05
2022-11-05T04:29:34.991Z,91.98
2022-11-05T04:32:07.546Z,92.50
2022-11-05T04:34:40.118Z,92.47
2022-11-05T04:37:12.634Z,92.24
2022-11-05T04:39:45.150Z,92.21
2022-11-05T04:42:17.705Z,92.08
2022-11-05T04:44:50.152Z,92.02
2022-11-05T04:47:22.648Z,91.79
2022-11-05T04:49:55.168Z,91.85
2022-11-05T04:52:27.656Z,92.11
2022-11-05T04:55:00.113Z,91.87
2022-11-05T04:57:32.643Z,92.16
2022-11-05T05:00:08.499Z,91.74
2022-11-05T05:02:41.644Z,91.78
2022-11-05T05:05:15.078Z,92.22
2022-11-05T05:07:47.558Z,92.00
2022-11-05T05:10:20.267Z,92.43
2022-11-05T05:12:52.839Z,92.20
2022-11-05T05:15:25.314Z,92.31
2022-11-05T05:17:57.939Z,92.22
2022-11-05T05:20:49.071Z,92.27
2022-11-05T05:23:21.573Z,91.79
2022-11-05T05:25:54.039Z,92.35
2022-11-05T05:28:28.175Z,92.55
2022-11-05T05:31:01.422Z,91.79
2022-11-05T05:33:33.945Z,91.82
2022-11-05T05:36:11.302Z,92.05
2022-11-05T05:38:44.148Z,92.20
2022-11-05T05:41:17.609Z,91.83
2022-11-05T05:43:50.536Z,92.02
2022-11-05T05:46:23.041Z,91.78
2022-11-05T05:48:55.610Z,91.47
2022-11-05T05:51:28.105Z,91.93
2022-11-05T05:54:00.620Z,92.35
2022-11-05T05:56:33.110Z,91.91
2022-11-05T05:59:06.528Z,91.82
2022-11-05T06:01:39.408Z,91.87
2022-11-05T06:04:12.203Z,92.22
2022-11-05T06:06:46.861Z,91.94
2022-11-05T06:09:19.410Z,91.92
2022-11-05T06:11:51.923Z,91.83
2022-11-05T06:14:24.386Z,91.63
2022-11-05T06:16:56.857Z,91.83
2022-11-05T06:19:29.398Z,92.07
2022-11-05T06:22:01.889Z,92.08
2022-11-05T06:24:34.398Z,92.08
2022-11-05T06:27:06.881Z,91.92
2022-11-05T06:29:39.385Z,91.84
2022-11-05T06:32:11.877Z,92.45
2022-11-05T06:34:44.352Z,91.71
2022-11-05T06:37:16.813Z,91.78
2022-11-05T06:39:49.305Z,92.09
2022-11-05T06:42:21.760Z,91.46
2022-11-05T06:44:54.258Z,91.77
2022-11-05T06:47:26.916Z,91.66
2022-11-05T06:49:59.436Z,91.59
2022-11-05T06:52:34.798Z,91.67
2022-11-05T06:55:09.599Z,91.76
2022-11-05T06:57:42.030Z,91.79
2022-11-05T07:00:15.270Z,91.30
2022-11-05T07:02:49.187Z,91.59
2022-11-05T07:05:22.814Z,91.77
2022-11-05T07:07:55.365Z,92.27
2022-11-05T07:10:28.032Z,91.82
2022-11-05T07:13:07.848Z,91.96
2022-11-05T07:15:40.794Z,92.02
2022-11-05T07:18:13.401Z,92.20
2022-11-05T07:20:46.046Z,91.92
2022-11-05T07:23:18.607Z,92.07
2022-11-05T07:25:51.091Z,92.30
2022-11-05T07:28:23.609Z,91.95
2022-11-05T07:30:58.764Z,91.79
2022-11-05T07:33:36.376Z,91.72
2022-11-05T07:36:10.096Z,91.90
2022-11-05T07:38:42.576Z,91.75
2022-11-05T07:41:15.102Z,92.16
2022-11-05T07:43:47.588Z,91.90
2022-11-05T07:46:20.060Z,92.63
2022-11-05T07:48:52.569Z,92.14
2022-11-05T07:51:25.194Z,92.06
2022-11-05T07:53:57.781Z,92.44
2022-11-05T07:56:30.356Z,92.35
2022-11-05T07:59:03.183Z,92.02
2022-11-05T08:01:35.829Z,92.28
2022-11-05T08:04:08.662Z,91.75
2022-11-05T08:06:41.208Z,92.27
2022-11-05T08:09:13.784Z,92.12
2022-11-05T08:11:46.307Z,91.94
2022-11-05T08:14:18.832Z,91.65
2022-11-05T08:16:51.309Z,91.89
2022-11-05T08:19:23.840Z,91.86
2022-11-05T08:21:56.321Z,91.63
2022-11-05T08:24:28.768Z,91.79
2022-11-05T08:27:01.292Z,91.46
2022-11-05T08:29:33.776Z,91.49
2022-11-05T08:32:06.367Z,90.94
2022-11-05T08:34:38.916Z,91.24
2022-11-05T08:37:11.913Z,91.37
2022-11-05T08:39:44.467Z,91.06
2022-11-05T08:42:16.993Z,91.24
2022-11-05T08:44:49.496Z,90.49
2022-11-05T08:47:22.209Z,90.41
2022-11-05T08:49:54.689Z,90.74
2022-11-05T08:52:27.171Z,89.56
2022-11-05T08:54:59.658Z,89.80
2022-11-05T08:57:32.253Z,89.55
2022-11-05T09:00:06.231Z,89.49
2022-11-05T09:02:38.792Z,88.92
2022-11-05T09:05:11.356Z,89.05
2022-11-05T09:07:43.948Z,88.29
2022-11-05T09:10:16.569Z,87.56
2022-11-05T09:12:49.671Z,87.55
2022-11-05T09:15:23.156Z,87.07
2022-11-05T09:17:56.347Z,86.16
2022-11-05T09:20:28.873Z,85.80
2022-11-05T09:23:01.347Z,85.54
2022-11-05T09:25:34.349Z,84.97
2022-11-05T09:28:16.793Z,84.39
2022-11-05T09:30:52.558Z,84.23
2022-11-05T09:33:27.937Z,83.35
2022-11-05T09:36:00.748Z,83.57
2022-11-05T09:38:36.934Z,83.57
2022-11-05T09:41:34.319Z,82.38
2022-11-05T09:44:20.384Z,82.36
2022-11-05T09:47:05.062Z,82.66
2022-11-05T09:49:53.898Z,81.97
2022-11-05T09:52:33.397Z,81.46
2022-11-05T09:55:22.771Z,81.04
2022-11-05T09:58:01.246Z,80.65
2022-11-05T10:00:34.544Z,79.58
2022-11-05T10:03:17.821Z,79.55
2022-11-05T10:05:53.482Z,79.04
2022-11-05T10:08:34.668Z,78.71
2022-11-05T10:11:20.431Z,78.23
2022-11-05T10:14:00.955Z,77.75
2022-11-05T10:16:43.799Z,77.35
2022-11-05T10:19:24.627Z,77.78
2022-11-05T10:22:16.364Z,77.33
2022-11-05T10:24:51.937Z,76.92
2022-11-05T10:27:37.751Z,76.10
2022-11-05T10:30:15.009Z,76.14
2022-11-05T10:32:51.978Z,76.08
2022-11-05T10:35:29.373Z,76.08
2022-11-05T10:38:02.418Z,75.58
2022-11-05T10:40:54.860Z,76.16
2022-11-05T10:43:42.530Z,75.59
2022-11-05T10:46:32.420Z,75.79
2022-11-05T10:49:24.823Z,74.98
2022-11-05T10:52:06.073Z,75.00
2022-11-05T10:54:39.241Z,74.70
2022-11-05T10:57:49.415Z,74.98
2022-11-05T11:00:26.198Z,75.11
2022-11-05T11:03:02.463Z,75.01
2022-11-05T11:05:40.587Z,75.06
2022-11-05T11:08:12.965Z,75.07
2022-11-05T11:10:51.506Z,74.91
2022-11-05T11:13:47.179Z,74.31
2022-11-05T11:16:26.604Z,73.71
2022-11-05T11:19:01.540Z,73.54
2022-11-05T11:21:34.121Z,73.82
2022-11-05T11:24:22.962Z,74.39
2022-11-05T11:27:03.069Z,73.74
2022-11-05T11:29:42.815Z,74.10
2022-11-05T11:32:21.697Z,72.55
2022-11-05T11:34:57.243Z,73.20
2022-11-05T11:37:42.105Z,72.70
2022-11-05T11:40:30.625Z,72.68
2022-11-05T11:43:15.713Z,72.47
2022-11-05T11:45:53.118Z,71.67
2022-11-05T11:48:30.155Z,72.08
2022-11-05T11:51:19.149Z,71.55
2022-11-05T11:53:57.806Z,71.37
2022-11-05T11:56:43.568Z,71.48
2022-11-05T11:59:46.757Z,71.48
2022-11-05T12:02:53.163Z,71.06
2022-11-05T12:06:09.043Z,70.81
2022-11-05T12:09:08.175Z,70.45
2022-11-05T12:11:49.016Z,70.23
2022-11-05T12:15:00.546Z,70.28
2022-11-05T12:17:56.760Z,69.12
2022-11-05T12:20:57.853Z,68.64
2022-11-05T12:23:58.734Z,69.02
2022-11-05T12:27:05.435Z,69.67
2022-11-05T12:29:52.833Z,69.13
2022-11-05T12:32:42.702Z,69.76
2022-11-05T12:36:03.352Z,70.04
2022-11-05T12:39:13.023Z,69.45
2022-11-05T12:42:02.357Z,69.34
2022-11-05T12:44:48.321Z,69.53
2022-11-05T12:47:52.093Z,69.26
2022-11-05T12:50:41.776Z,69.21
2022-11-05T12:53:36.201Z,68.71
2022-11-05T12:56:35.455Z,67.87
2022-11-05T12:59:45.515Z,67.20
2022-11-05T13:02:30.197Z,67.10
2022-11-05T13:05:21.002Z,67.16
2022-11-05T13:08:08.370Z,66.76
2022-11-05T13:10:51.861Z,67.29
2022-11-05T13:13:38.494Z,66.59
2022-11-05T13:16:25.582Z,67.26
2022-11-05T13:19:15.774Z,66.87
2022-11-05T13:21:57.725Z,65.62
2022-11-05T13:24:49.470Z,65.31
2022-11-05T13:27:43.252Z,65.43
2022-11-05T13:30:21.982Z,64.86
2022-11-05T13:33:21.818Z,65.10
2022-11-05T13:36:23.392Z,65.46
2022-11-05T13:39:23.828Z,65.65
2022-11-05T13:42:33.840Z,65.45
2022-11-05T13:45:30.613Z,66.52
2022-11-05T13:48:28.017Z,66.59
2022-11-05T13:51:45.894Z,67.64
2022-11-05T13:55:37.454Z,67.33
2022-11-05T13:58:16.388Z,66.72
2022-11-05T14:01:10.741Z,67.94
2022-11-05T14:03:54.327Z,68.09
2022-11-05T14:06:36.082Z,67.58
2022-11-05T14:09:25.412Z,67.90
2022-11-05T14:11:58.842Z,68.02
2022-11-05T14:14:52.253Z,67.87
2022-11-05T14:17:55.075Z,68.32
2022-11-05T14:20:33.194Z,68.02
2022-11-05T14:23:21.144Z,69.85
2022-11-05T14:26:11.591Z,68.63
2022-11-05T14:28:51.478Z,69.46
2022-11-05T14:32:08.307Z,68.66
2022-11-05T14:35:01.891Z,69.15
2022-11-05T14:37:50.584Z,69.16
2022-11-05T14:40:44.229Z,68.87
2022-11-05T14:43:22.393Z,69.31
2022-11-05T14:46:01.925Z,69.10
2022-11-05T14:48:42.053Z,70.37
2022-11-05T14:51:30.231Z,69.61
2022-11-05T14:54:26.803Z,69.27
2022-11-05T14:57:02.518Z,71.80
2022-11-05T14:59:52.148Z,69.91
2022-11-05T15:02:38.202Z,70.10
2022-11-05T15:05:51.443Z,69.96
2022-11-05T15:08:26.789Z,69.97
2022-11-05T15:11:15.269Z,69.65
2022-11-05T15:13:53.836Z,71.16
2022-11-05T15:16:36.238Z,70.55
2022-11-05T15:19:23.167Z,71.00
2022-11-05T15:22:00.818Z,72.32
2022-11-05T15:24:34.963Z,71.98
2022-11-05T15:27:44.163Z,70.83
2022-11-05T15:30:21.745Z,71.46
2022-11-05T15:32:54.286Z,71.43
2022-11-05T15:35:29.979Z,71.53
2022-11-05T15:38:02.927Z,73.62
2022-11-05T15:40:35.589Z,71.96
2022-11-05T15:43:20.858Z,73.16
2022-11-05T15:46:15.439Z,72.51
2022-11-05T15:48:52.902Z,73.23
2022-11-05T15:51:26.722Z,72.28
2022-11-05T15:56:59.502Z,72.76
2022-11-05T15:59:32.072Z,72.82
2022-11-05T16:02:26.333Z,72.27
2022-11-05T16:05:03.272Z,72.79
2022-11-05T16:07:36.032Z,73.24
2022-11-05T16:10:21.078Z,73.10
2022-11-05T16:12:53.683Z,73.17
2022-11-05T16:15:32.112Z,73.34
2022-11-05T16:18:25.971Z,73.27
2022-11-05T16:21:08.048Z,73.53
2022-11-05T16:23:48.941Z,73.29
2022-11-05T16:27:01.702Z,73.03
2022-11-05T16:29:35.303Z,73.30
2022-11-05T16:32:19.412Z,73.47
2022-11-05T16:35:01.051Z,73.89
2022-11-05T16:37:46.342Z,73.50
2022-11-05T16:40:25.015Z,73.71
2022-11-05T16:43:17.503Z,73.66
2022-11-05T16:45:54.879Z,74.01
2022-11-05T16:48:28.331Z,74.12
2022-11-05T16:51:00.816Z,74.53
2022-11-05T16:53:33.288Z,74.63
2022-11-05T16:56:06.422Z,75.46
2022-11-05T16:58:38.937Z,74.66
2022-11-05T17:01:19.393Z,74.54
2022-11-05T17:03:53.447Z,74.67
2022-11-05T17:06:25.936Z,74.89
2022-11-05T17:08:58.529Z,74.95
2022-11-05T17:11:31.001Z,75.43
2022-11-05T17:14:03.547Z,75.67
2022-11-05T17:16:38.817Z,75.75
2022-11-05T17:19:15.507Z,75.96
2022-11-05T17:21:48.491Z,76.09
2022-11-05T17:24:20.945Z,75.97
2022-11-05T17:26:53.434Z,76.58
2022-11-05T17:29:25.888Z,76.40
2022-11-05T17:31:58.542Z,76.41
2022-11-05T17:34:31.069Z,76.19
2022-11-05T17:37:03.588Z,76.58
2022-11-05T17:39:36.064Z,75.99
2022-11-05T17:42:08.544Z,76.01
2022-11-05T17:44:41.038Z,76.31
2022-11-05T17:47:13.516Z,75.98
2022-11-05T17:49:46.167Z,75.98
2022-11-05T17:52:18.978Z,75.98
2022-11-05T17:54:51.434Z,75.69
2022-11-05T17:57:23.913Z,76.65
2022-11-05T17:59:56.485Z,76.25
2022-11-05T18:02:29.402Z,76.48
2022-11-05T18:05:02.131Z,76.59
2022-11-05T18:07:34.597Z,76.36
2022-11-05T18:10:07.960Z,76.42
2022-11-05T18:12:41.614Z,76.56
2022-11-05T18:15:15.903Z,76.08
2022-11-05T18:17:48.647Z,75.96
2022-11-05T18:20:21.191Z,76.60
2022-11-05T18:22:53.650Z,76.56
2022-11-05T18:25:26.359Z,76.56
2022-11-05T18:27:58.872Z,76.63
2022-11-05T18:30:31.384Z,76.24
2022-11-05T18:33:03.973Z,76.23
2022-11-05T18:35:46.056Z,75.72
2022-11-05T18:38:18.628Z,75.51
2022-11-05T18:40:51.383Z,75.78
2022-11-05T18:43:23.927Z,75.76
2022-11-05T18:45:56.609Z,75.99
2022-11-05T18:48:29.095Z,75.66
2022-11-05T18:51:09.035Z,76.01
2022-11-05T18:53:42.537Z,76.28
2022-11-05T18:56:18.225Z,76.08
2022-11-05T18:59:14.574Z,76.17
2022-11-05T19:01:47.592Z,76.60
2022-11-05T19:04:20.292Z,76.34
2022-11-05T19:06:52.846Z,76.22
2022-11-05T19:09:25.439Z,75.79
2022-11-05T19:11:57.945Z,76.37
2022-11-05T19:14:30.935Z,76.35
2022-11-05T19:17:04.280Z,76.45
2022-11-05T19:19:37.396Z,76.33
2022-11-05T19:22:10.316Z,76.39
2022-11-05T19:24:42.796Z,76.82
2022-11-05T19:27:15.380Z,76.47
2022-11-05T19:29:49.558Z,76.66
2022-11-05T19:32:22.137Z,76.54
2022-11-05T19:34:54.612Z,76.64
2022-11-05T19:37:27.151Z,76.71
2022-11-05T19:39:59.636Z,76.75
2022-11-05T19:42:32.145Z,76.91
2022-11-05T19:45:30.237Z,77.00
2022-11-05T19:47:57.884Z,76.70
2022-11-05T19:50:30.598Z,76.92
2022-11-05T19:53:03.126Z,77.04
2022-11-05T19:55:40.677Z,77.72
2022-11-05T19:58:13.653Z,78.51
2022-11-05T20:00:46.530Z,78.34
2022-11-05T20:03:19.160Z,78.77
2022-11-05T20:05:51.836Z,78.42
2022-11-05T20:08:24.403Z,78.43
2022-11-05T20:10:57.314Z,79.00
2022-11-05T20:13:30.986Z,78.83
2022-11-05T20:16:04.193Z,78.93
2022-11-05T20:18:36.695Z,78.92
2022-11-05T20:21:09.997Z,78.70
2022-11-05T20:23:43.007Z,78.40
2022-11-05T20:26:16.421Z,78.41
2022-11-05T20:28:49.177Z,78.89
2022-11-05T20:31:22.521Z,78.53
2022-11-05T20:33:55.055Z,78.32
2022-11-05T20:36:27.674Z,78.66
2022-11-05T20:39:02.229Z,78.92
2022-11-05T20:41:34.762Z,78.24
2022-11-05T20:44:07.364Z,78.43
2022-11-05T20:46:40.428Z,78.65
2022-11-05T20:49:12.933Z,78.92
2022-11-05T20:51:45.495Z,78.51
2022-11-05T20:54:17.996Z,78.73
2022-11-05T20:56:50.766Z,78.97
2022-11-05T20:59:23.916Z,79.49
2022-11-05T21:01:56.530Z,79.41
2022-11-05T21:04:29.283Z,79.61
2022-11-05T21:07:01.824Z,79.88
2022-11-05T21:09:34.356Z,79.88
2022-11-05T21:12:11.091Z,79.83
2022-11-05T21:14:44.368Z,79.93
2022-11-05T21:17:17.247Z,80.07
2022-11-05T21:19:49.776Z,80.41
2022-11-05T21:22:22.238Z,81.12
2022-11-05T21:24:56.691Z,80.72
2022-11-05T21:27:29.171Z,80.64
2022-11-05T21:30:01.678Z,81.26
2022-11-05T21:32:34.194Z,81.27
2022-11-05T21:35:07.127Z,81.21
2022-11-05T21:37:39.715Z,81.26
2022-11-05T21:40:12.500Z,81.13
2022-11-05T21:42:44.975Z,80.98
2022-11-05T21:45:17.624Z,81.29
2022-11-05T21:47:50.098Z,81.15
2022-11-05T21:50:43.399Z,81.28
2022-11-05T21:53:36.279Z,81.12
2022-11-05T21:56:38.084Z,81.34
2022-11-05T21:59:39.614Z,80.72
2022-11-05T22:02:16.003Z,80.68
2022-11-05T22:04:53.052Z,80.54
2022-11-05T22:07:30.660Z,80.83
2022-11-05T22:10:13.188Z,80.61
2022-11-05T22:12:48.283Z,79.96
2022-11-05T22:15:20.744Z,80.13
2022-11-05T22:17:53.264Z,80.61
2022-11-05T22:20:25.785Z,79.71
2022-11-05T22:22:58.278Z,79.95
2022-11-05T22:25:30.803Z,79.76
2022-11-05T22:28:03.470Z,79.60
2022-11-05T22:30:36.575Z,80.00
2022-11-05T22:33:09.168Z,79.81
2022-11-05T22:35:41.640Z,79.75
2022-11-05T22:38:14.526Z,79.85
2022-11-05T22:40:47.207Z,79.75
2022-11-05T22:43:19.740Z,79.67
2022-11-05T22:45:52.327Z,79.32
2022-11-05T22:48:24.815Z,79.91
2022-11-05T22:51:07.400Z,79.25
2022-11-05T22:53:41.329Z,79.53
2022-11-05T22:56:17.405Z,79.27
2022-11-05T22:58:51.676Z,79.42
2022-11-05T23:01:25.314Z,79.42
2022-11-05T23:03:59.676Z,79.43
2022-11-05T23:06:52.357Z,79.96
2022-11-05T23:09:50.776Z,79.50
2022-11-05T23:12:27.032Z,79.25
2022-11-05T23:15:03.662Z,79.11
2022-11-05T23:17:54.876Z,79.34
2022-11-05T23:20:46.281Z,79.90
2022-11-05T23:23:37.540Z,79.47
2022-11-05T23:26:28.915Z,79.41
2022-11-05T23:29:01.494Z,80.58
2022-11-05T23:31:52.603Z,80.69
2022-11-05T23:34:25.233Z,81.05
2022-11-05T23:37:16.312Z,81.47
2022-11-05T23:39:50.272Z,81.15
2022-11-05T23:42:44.282Z,81.05
2022-11-05T23:45:35.713Z,81.22
2022-11-05T23:48:19.871Z,80.60
2022-11-05T23:51:00.822Z,80.73
2022-11-05T23:53:37.752Z,80.72
2022-11-05T23:56:14.225Z,81.09
2022-11-05T23:58:46.704Z,80.85
